Time;durP1;ratioP1;P1;durP2;ratioP2;P2;SDS_P1;SDS_P2;PMS_P1;PMS_P2;Temp;Humidity;BMP_temperature;BMP_pressure;BME280_temperature;BME280_humidity;BME280_pressure;Samples;Min_cycle;Max_cycle;Signal;HPM_P1;HPM_P2
2022/06/01 00:00:36;;;;;;;1999.90;999.90;;;14.40;82.60;;;;;;4944181;29;20035;-82
2022/06/01 00:03:02;;;;;;;1999.90;999.90;;;14.50;83.80;;;;;;4941307;29;20027;-82
2022/06/01 00:05:28;;;;;;;1999.90;999.90;;;14.50;82.90;;;;;;4936143;29;20036;-82
2022/06/01 00:07:53;;;;;;;1999.90;999.90;;;14.50;82.90;;;;;;4942751;29;20019;-82
2022/06/01 00:10:20;;;;;;;1999.90;999.90;;;14.50;83.10;;;;;;4943977;29;20071;-75
2022/06/01 00:12:45;;;;;;;1999.90;999.90;;;14.50;82.80;;;;;;4956546;29;20043;-75
2022/06/01 00:15:13;;;;;;;1999.90;999.90;;;14.50;83.20;;;;;;4943610;29;20028;-75
2022/06/01 00:17:39;;;;;;;1999.90;999.90;;;14.50;83.00;;;;;;4951612;29;20504;-75
2022/06/01 00:20:05;;;;;;;1999.90;999.90;;;14.50;83.10;;;;;;4956330;29;20106;-75
2022/06/01 00:22:31;;;;;;;1999.90;999.90;;;14.50;83.40;;;;;;4953081;28;20027;-75
2022/06/01 00:24:57;;;;;;;1999.90;999.90;;;14.50;82.90;;;;;;4975859;28;20034;-75
2022/06/01 00:27:23;;;;;;;1999.90;999.90;;;14.40;83.30;;;;;;4974838;28;20573;-75
2022/06/01 00:29:48;;;;;;;1999.90;999.90;;;14.40;83.40;;;;;;4975825;28;20103;-75
2022/06/01 00:32:15;;;;;;;1999.90;999.90;;;14.40;83.60;;;;;;4966965;28;20055;-75
2022/06/01 00:34:42;;;;;;;1999.90;999.90;;;14.40;83.80;;;;;;4957552;28;20019;-75
2022/06/01 00:37:09;;;;;;;1999.90;999.90;;;14.40;83.70;;;;;;4968876;28;20030;-75
2022/06/01 00:39:36;;;;;;;1999.90;999.90;;;14.50;84.00;;;;;;4949135;28;20106;-75
2022/06/01 00:42:16;;;;;;;1999.90;999.90;;;14.40;83.90;;;;;;4954840;28;20027;-75
2022/06/01 00:44:42;;;;;;;1999.90;999.90;;;14.40;84.30;;;;;;4948003;28;20026;-75
2022/06/01 00:47:10;;;;;;;1999.90;999.90;;;14.40;84.40;;;;;;4968805;28;20446;-75
2022/06/01 00:49:37;;;;;;;1999.90;999.90;;;14.40;84.80;;;;;;4975324;28;20019;-75
2022/06/01 00:52:04;;;;;;;1999.90;999.90;;;14.40;84.90;;;;;;4975011;28;20035;-75
2022/06/01 00:54:30;;;;;;;1999.90;999.90;;;14.40;84.90;;;;;;4955763;28;20386;-75
2022/06/01 00:57:00;;;;;;;1999.90;999.90;;;14.40;84.90;;;;;;4960350;28;20027;-75
2022/06/01 00:59:30;;;;;;;1999.90;999.90;;;14.40;85.10;;;;;;4953080;28;20026;-75
2022/06/01 01:01:56;;;;;;;1999.90;999.90;;;14.40;85.30;;;;;;4974742;28;20070;-74
2022/06/01 01:04:23;;;;;;;1999.90;999.90;;;14.40;85.50;;;;;;4974835;28;20386;-74
2022/06/01 01:06:49;;;;;;;1999.90;999.90;;;14.40;85.90;;;;;;4974651;28;20037;-74
2022/06/01 01:09:15;;;;;;;1999.90;999.90;;;14.30;86.10;;;;;;4974123;28;20412;-75
2022/06/01 01:11:50;;;;;;;1999.90;999.90;;;14.40;86.30;;;;;;4974574;28;20026;-74
2022/06/01 01:14:20;;;;;;;1999.90;999.90;;;14.40;86.20;;;;;;4960694;28;20023;-74
2022/06/01 01:16:50;;;;;;;1999.90;999.90;;;14.40;86.50;;;;;;4953478;28;20034;-74
2022/06/01 01:19:34;;;;;;;1999.90;999.90;;;14.30;86.70;;;;;;4974728;28;20045;-74
2022/06/01 01:22:19;;;;;;;1999.90;999.90;;;14.40;86.30;;;;;;4954050;28;20027;-74
2022/06/01 01:25:13;;;;;;;1999.90;999.90;;;14.40;87.10;;;;;;4967647;28;20490;-74
2022/06/01 01:27:39;;;;;;;1999.90;999.90;;;14.40;86.70;;;;;;4969647;28;20048;-74
2022/06/01 01:30:36;;;;;;;1999.90;999.90;;;14.40;86.80;;;;;;4973598;28;20027;-74
2022/06/01 01:33:04;;;;;;;1999.90;999.90;;;14.40;87.40;;;;;;4964017;28;20075;-74
2022/06/01 01:35:30;;;;;;;1999.90;999.90;;;14.30;88.90;;;;;;4961715;28;20105;-74
2022/06/01 01:37:59;;;;;;;1999.90;999.90;;;14.20;90.10;;;;;;4974501;28;20162;-74
2022/06/01 01:40:25;;;;;;;1999.90;999.90;;;14.10;91.90;;;;;;4974093;28;20034;-74
2022/06/01 01:42:53;;;;;;;1999.90;999.90;;;13.90;94.30;;;;;;4969875;28;20178;-74
2022/06/01 01:45:30;;;;;;;1999.90;999.90;;;13.60;95.00;;;;;;4970158;28;20391;-74
2022/06/01 01:47:56;;;;;;;1999.90;999.90;;;13.40;96.70;;;;;;4968052;28;20158;-74
2022/06/01 01:50:23;;;;;;;1999.90;999.90;;;13.20;97.60;;;;;;4956426;28;20074;-74
2022/06/01 01:52:50;;;;;;;1999.90;999.90;;;13.00;99.90;;;;;;4973846;28;20019;-74
2022/06/01 01:55:31;;;;;;;1999.90;999.90;;;12.90;99.90;;;;;;4968780;28;20493;-74
2022/06/01 01:58:02;;;;;;;1999.90;999.90;;;12.80;99.90;;;;;;4964202;28;20458;-74
2022/06/01 02:00:31;;;;;;;1999.90;999.90;;;12.50;99.90;;;;;;4973114;28;20110;-74
2022/06/01 02:03:19;;;;;;;1999.90;999.90;;;12.30;99.90;;;;;;4973998;28;20060;-74
2022/06/01 02:06:21;;;;;;;1999.90;999.90;;;12.20;99.90;;;;;;4962780;28;20102;-74
2022/06/01 02:09:04;;;;;;;1999.90;999.90;;;12.10;99.90;;;;;;4966331;28;20521;-73
2022/06/01 02:14:37;;;;;;;1999.90;999.90;;;11.90;99.90;;;;;;4971090;28;20046;-73
2022/06/01 02:17:16;;;;;;;1999.90;999.90;;;11.80;99.90;;;;;;4973692;28;20027;-73
2022/06/01 02:19:48;;;;;;;1999.90;999.90;;;11.70;99.90;;;;;;4967358;28;20038;-73
2022/06/01 02:22:14;;;;;;;1999.90;999.90;;;11.60;99.90;;;;;;4967259;28;20023;-73
2022/06/01 02:24:41;;;;;;;1999.90;999.90;;;11.60;99.90;;;;;;4973525;28;20117;-73
2022/06/01 02:27:09;;;;;;;1999.90;999.90;;;11.50;99.90;;;;;;4973415;28;20019;-73
2022/06/01 02:29:43;;;;;;;1999.90;999.90;;;11.40;99.90;;;;;;4973846;28;20022;-73
2022/06/01 02:32:11;;;;;;;1999.90;999.90;;;11.40;99.90;;;;;;4970739;28;20027;-73
2022/06/01 02:34:38;;;;;;;1999.90;999.90;;;11.50;99.90;;;;;;4948719;28;20038;-73
2022/06/01 02:37:07;;;;;;;1999.90;999.90;;;11.50;99.90;;;;;;4969536;28;20035;-73
2022/06/01 02:39:36;;;;;;;1999.90;999.90;;;11.40;99.90;;;;;;4964793;28;20023;-73
2022/06/01 02:42:25;;;;;;;1999.90;999.90;;;11.50;99.90;;;;;;4973424;28;20027;-72
2022/06/01 02:44:58;;;;;;;1999.90;999.90;;;11.50;99.90;;;;;;4947832;28;20549;-73
2022/06/01 02:47:26;;;;;;;1999.90;999.90;;;11.60;99.90;;;;;;4964702;28;20490;-73
2022/06/01 02:49:51;;;;;;;1999.90;999.90;;;11.60;99.90;;;;;;4956127;28;20085;-73
2022/06/01 02:52:17;;;;;;;1999.90;999.90;;;11.70;99.90;;;;;;4966081;28;20027;-74
2022/06/01 02:54:43;;;;;;;1999.90;999.90;;;11.70;99.90;;;;;;4965157;28;20046;-73
2022/06/01 02:57:09;;;;;;;1999.90;999.90;;;11.80;99.90;;;;;;4948401;29;20106;-73
2022/06/01 02:59:36;;;;;;;1999.90;999.90;;;11.90;99.90;;;;;;4953876;28;20129;-74
2022/06/01 03:02:02;;;;;;;1999.90;999.90;;;11.90;99.90;;;;;;4976046;28;20019;-73
2022/06/01 03:04:27;;;;;;;1999.90;999.90;;;12.00;99.90;;;;;;4976854;28;20077;-73
2022/06/01 03:06:54;;;;;;;1999.90;999.90;;;12.00;99.90;;;;;;4977073;28;20027;-74
2022/06/01 03:09:19;;;;;;;1999.90;999.90;;;12.00;99.90;;;;;;4977068;28;20053;-73
2022/06/01 03:11:45;;;;;;;1999.90;999.90;;;12.00;99.90;;;;;;4959299;28;20110;-74
2022/06/01 03:14:11;;;;;;;1999.90;999.90;;;12.10;99.90;;;;;;4974074;28;20056;-74
2022/06/01 03:16:37;;;;;;;1999.90;999.90;;;12.00;99.90;;;;;;4968846;28;20078;-73
2022/06/01 03:19:04;;;;;;;1999.90;999.90;;;12.00;99.90;;;;;;4973776;28;20041;-73
2022/06/01 03:21:30;;;;;;;1999.90;999.90;;;12.00;99.90;;;;;;4976571;28;20109;-74
2022/06/01 03:23:55;;;;;;;1999.90;999.90;;;12.00;99.90;;;;;;4976271;28;20082;-74
2022/06/01 03:26:22;;;;;;;1999.90;999.90;;;12.10;99.90;;;;;;4976433;28;20023;-74
2022/06/01 03:28:48;;;;;;;1999.90;999.90;;;12.10;99.90;;;;;;4976390;28;20110;-74
2022/06/01 03:31:14;;;;;;;1999.90;999.90;;;12.10;99.90;;;;;;4976446;28;20509;-74
2022/06/01 03:33:39;;;;;;;1999.90;999.90;;;12.10;99.90;;;;;;4961939;28;20027;-74
2022/06/01 03:36:06;;;;;;;1999.90;999.90;;;12.10;99.90;;;;;;4957429;28;20027;-74
2022/06/01 03:38:32;;;;;;;1999.90;999.90;;;12.10;99.90;;;;;;4945442;28;20032;-74
2022/06/01 03:40:57;;;;;;;1999.90;999.90;;;12.10;99.90;;;;;;4959055;28;20031;-74
2022/06/01 03:43:23;;;;;;;1999.90;999.90;;;12.10;99.90;;;;;;4971946;28;20027;-74
2022/06/01 03:45:55;;;;;;;1999.90;999.90;;;12.00;99.90;;;;;;4972043;28;20023;-73
2022/06/01 03:48:22;;;;;;;1999.90;999.90;;;12.00;99.90;;;;;;4969824;28;20474;-73
2022/06/01 03:50:48;;;;;;;1999.90;999.90;;;12.10;99.90;;;;;;4968869;28;20101;-74
2022/06/01 03:53:14;;;;;;;1999.90;999.90;;;12.10;99.90;;;;;;4976324;28;20109;-74
2022/06/01 03:55:40;;;;;;;1999.90;999.90;;;12.10;99.90;;;;;;4946795;29;20639;-74
2022/06/01 03:58:06;;;;;;;1999.90;999.90;;;12.10;99.90;;;;;;4963718;28;20043;-73
2022/06/01 04:00:32;;;;;;;1999.90;999.90;;;12.10;99.90;;;;;;4975440;28;20472;-73
2022/06/01 04:02:58;;;;;;;1999.90;999.90;;;12.10;99.90;;;;;;4966519;28;20031;-74
2022/06/01 04:05:24;;;;;;;1999.90;999.90;;;12.10;99.90;;;;;;4968024;28;20110;-74
2022/06/01 04:07:50;;;;;;;1999.90;999.90;;;12.10;99.90;;;;;;4972551;28;20457;-74
2022/06/01 04:10:17;;;;;;;1999.90;999.90;;;12.10;99.90;;;;;;4958296;28;20031;-74
2022/06/01 04:12:42;;;;;;;1999.90;999.90;;;12.20;99.90;;;;;;4975814;28;20082;-74
2022/06/01 04:15:09;;;;;;;1999.90;999.90;;;12.30;99.90;;;;;;4954199;28;20082;-73
2022/06/01 04:17:36;;;;;;;1999.90;999.90;;;12.30;99.90;;;;;;4970735;28;20034;-73
2022/06/01 04:20:02;;;;;;;1999.90;999.90;;;12.30;99.90;;;;;;4947215;28;20031;-74
2022/06/01 04:22:28;;;;;;;1999.90;999.90;;;12.20;99.90;;;;;;4952468;28;20031;-73
2022/06/01 04:24:53;;;;;;;1999.90;999.90;;;12.20;99.90;;;;;;4967573;28;20040;-74
2022/06/01 04:27:19;;;;;;;1999.90;999.90;;;12.20;99.90;;;;;;4974563;28;20478;-74
2022/06/01 04:29:45;;;;;;;1999.90;999.90;;;12.20;99.90;;;;;;4975516;28;20054;-74
2022/06/01 04:32:20;;;;;;;1999.90;999.90;;;12.30;99.90;;;;;;4952870;29;20113;-74
2022/06/01 04:34:45;;;;;;;1999.90;999.90;;;12.30;99.90;;;;;;4958790;28;20439;-74
2022/06/01 04:37:11;;;;;;;1999.90;999.90;;;12.30;99.90;;;;;;4962659;28;20069;-74
2022/06/01 04:39:36;;;;;;;1999.90;999.90;;;12.40;99.90;;;;;;4949296;28;20023;-74
2022/06/01 04:42:02;;;;;;;1999.90;999.90;;;12.40;99.90;;;;;;4962786;28;20027;-74
2022/06/01 04:44:28;;;;;;;1999.90;999.90;;;12.40;99.90;;;;;;4970821;28;20414;-74
2022/06/01 04:46:54;;;;;;;1999.90;999.90;;;12.40;99.90;;;;;;4969016;28;20394;-74
2022/06/01 04:49:19;;;;;;;1999.90;999.90;;;12.30;99.90;;;;;;4957997;28;20039;-74
2022/06/01 04:51:45;;;;;;;1999.90;999.90;;;12.40;99.90;;;;;;4944234;28;20046;-74
2022/06/01 04:54:10;;;;;;;1999.90;999.90;;;12.40;99.90;;;;;;4971887;28;20031;-73
2022/06/01 04:56:36;;;;;;;1999.90;999.90;;;12.40;99.90;;;;;;4963886;28;20630;-73
2022/06/01 04:59:02;;;;;;;1999.90;999.90;;;12.40;99.90;;;;;;4962517;28;20031;-73
2022/06/01 05:01:27;;;;;;;1999.90;999.90;;;12.40;99.90;;;;;;4974137;28;20121;-73
2022/06/01 05:03:53;;;;;;;1999.90;999.90;;;12.50;99.90;;;;;;4974832;28;20026;-72
2022/06/01 05:06:19;;;;;;;1999.90;999.90;;;12.50;99.90;;;;;;4971138;28;20022;-73
2022/06/01 05:08:44;;;;;;;1999.90;999.90;;;12.50;99.90;;;;;;4955153;29;20023;-74
2022/06/01 05:11:10;;;;;;;1999.90;999.90;;;12.50;99.90;;;;;;4973523;28;20485;-74
2022/06/01 05:13:36;;;;;;;1999.90;999.90;;;12.50;99.90;;;;;;4974801;28;20030;-74
2022/06/01 05:16:02;;;;;;;1999.90;999.90;;;12.40;99.90;;;;;;4949946;28;20377;-74
2022/06/01 05:18:28;;;;;;;1999.90;999.90;;;12.40;99.90;;;;;;4972892;28;20027;-74
2022/06/01 05:20:57;;;;;;;1999.90;999.90;;;12.50;99.90;;;;;;4955906;28;20073;-74
2022/06/01 05:23:24;;;;;;;1999.90;999.90;;;12.50;99.90;;;;;;4956570;28;20410;-74
2022/06/01 05:25:52;;;;;;;1999.90;999.90;;;12.50;99.90;;;;;;4974283;28;20023;-74
2022/06/01 05:28:23;;;;;;;1999.90;999.90;;;12.50;99.90;;;;;;4974354;28;20033;-74
2022/06/01 05:30:49;;;;;;;1999.90;999.90;;;12.50;99.90;;;;;;4973888;28;20023;-74
2022/06/01 05:33:15;;;;;;;1999.90;999.90;;;12.50;99.90;;;;;;4962345;28;20031;-74
2022/06/01 05:35:41;;;;;;;1999.90;999.90;;;12.50;99.90;;;;;;4942926;28;20027;-74
2022/06/01 05:38:07;;;;;;;1999.90;999.90;;;12.60;99.90;;;;;;4965462;28;20031;-74
2022/06/01 05:40:33;;;;;;;1999.90;999.90;;;12.70;99.90;;;;;;4958497;28;20506;-74
2022/06/01 05:42:59;;;;;;;1999.90;999.90;;;12.90;99.90;;;;;;4966681;28;20474;-74
2022/06/01 05:45:25;;;;;;;1999.90;999.90;;;13.00;99.90;;;;;;4951557;29;20033;-74
2022/06/01 05:47:51;;;;;;;1999.90;999.90;;;13.10;99.90;;;;;;4948277;28;20035;-74
2022/06/01 05:50:17;;;;;;;1999.90;999.90;;;13.20;99.90;;;;;;4969588;28;20031;-74
2022/06/01 05:52:43;;;;;;;1999.90;999.90;;;13.30;99.90;;;;;;4963157;28;20031;-74
2022/06/01 05:55:12;;;;;;;1999.90;999.90;;;13.40;99.90;;;;;;4950898;28;20421;-74
2022/06/01 05:57:38;;;;;;;1999.90;999.90;;;13.50;99.90;;;;;;4946679;29;20167;-73
2022/06/01 06:00:07;;;;;;;1999.90;999.90;;;13.40;99.90;;;;;;4972734;28;20441;-74
2022/06/01 06:02:33;;;;;;;1999.90;999.90;;;13.50;99.90;;;;;;4973101;28;20030;-74
2022/06/01 06:04:59;;;;;;;1999.90;999.90;;;13.30;99.90;;;;;;4973518;28;20035;-74
2022/06/01 06:07:24;;;;;;;1999.90;999.90;;;13.30;99.90;;;;;;4960130;28;20094;-74
2022/06/01 06:09:50;;;;;;;1999.90;999.90;;;13.20;99.90;;;;;;4949072;28;20035;-74
2022/06/01 06:12:16;;;;;;;1999.90;999.90;;;13.30;99.90;;;;;;4932604;28;20035;-74
2022/06/01 06:14:41;;;;;;;1999.90;999.90;;;13.30;99.90;;;;;;4960668;28;20047;-74
2022/06/01 06:17:07;;;;;;;1999.90;999.90;;;13.30;99.90;;;;;;4935314;28;20017;-73
2022/06/01 06:19:33;;;;;;;1999.90;999.90;;;13.30;99.90;;;;;;4962081;28;20031;-73
2022/06/01 06:21:59;;;;;;;1999.90;999.90;;;13.40;99.90;;;;;;4954821;28;20094;-74
2022/06/01 06:24:24;;;;;;;1999.90;999.90;;;13.40;99.90;;;;;;4969457;28;20082;-74
2022/06/01 06:26:50;;;;;;;1999.90;999.90;;;13.40;99.90;;;;;;4956758;28;20051;-73
2022/06/01 06:29:18;;;;;;;1999.90;999.90;;;13.40;99.90;;;;;;4969916;28;20114;-73
2022/06/01 06:31:44;;;;;;;1999.90;999.90;;;13.50;99.90;;;;;;4967400;28;20037;-73
2022/06/01 06:34:12;;;;;;;1999.90;999.90;;;13.60;99.90;;;;;;4957728;28;20505;-73
2022/06/01 06:36:38;;;;;;;1999.90;999.90;;;13.60;99.90;;;;;;4960103;28;20402;-73
2022/06/01 06:39:03;;;;;;;1999.90;999.90;;;13.60;99.90;;;;;;4966451;28;20034;-73
2022/06/01 06:41:29;;;;;;;1999.90;999.90;;;13.50;99.90;;;;;;4956888;28;20122;-74
2022/06/01 06:43:55;;;;;;;1999.90;999.90;;;13.60;99.90;;;;;;4971029;28;20077;-74
2022/06/01 06:46:23;;;;;;;1999.90;999.90;;;13.40;99.90;;;;;;4968884;28;20028;-73
2022/06/01 06:48:49;;;;;;;1999.90;999.90;;;13.50;99.90;;;;;;4965658;28;20034;-73
2022/06/01 06:51:16;;;;;;;1999.90;999.90;;;13.70;99.90;;;;;;4958939;28;20023;-73
2022/06/01 06:53:42;;;;;;;1999.90;999.90;;;13.70;99.90;;;;;;4958897;28;20469;-73
2022/06/01 06:56:09;;;;;;;1999.90;999.90;;;13.90;99.90;;;;;;4966807;28;20519;-73
2022/06/01 06:58:35;;;;;;;1999.90;999.90;;;14.00;99.90;;;;;;4957671;28;20038;-73
2022/06/01 07:01:02;;;;;;;1999.90;999.90;;;14.10;99.90;;;;;;4952620;28;20035;-74
2022/06/01 07:03:27;;;;;;;1999.90;999.90;;;14.40;99.90;;;;;;4951840;28;20027;-73
2022/06/01 07:08:42;;;;;;;1999.90;999.90;;;14.90;99.90;;;;;;4975137;28;20114;-73
2022/06/01 07:11:08;;;;;;;1999.90;999.90;;;15.10;99.90;;;;;;4964237;28;20069;-73
2022/06/01 07:13:35;;;;;;;1999.90;999.90;;;15.00;99.90;;;;;;4966819;28;20082;-74
2022/06/01 07:16:05;;;;;;;1999.90;999.90;;;15.00;99.90;;;;;;4956816;28;20058;-76
2022/06/01 07:18:31;;;;;;;1999.90;999.90;;;15.00;99.90;;;;;;4951602;28;20066;-74
2022/06/01 07:20:58;;;;;;;1999.90;999.90;;;15.10;99.90;;;;;;4934455;29;20028;-73
2022/06/01 07:23:25;;;;;;;1999.90;999.90;;;15.10;99.90;;;;;;4939267;29;20055;-74
2022/06/01 07:25:52;;;;;;;1999.90;999.90;;;15.20;99.90;;;;;;4960379;28;20082;-73
2022/06/01 07:28:21;;;;;;;1999.90;999.90;;;15.20;99.90;;;;;;4958018;28;20023;-74
2022/06/01 07:30:49;;;;;;;1999.90;999.90;;;15.40;99.90;;;;;;4964198;28;20110;-75
2022/06/01 07:33:15;;;;;;;1999.90;999.90;;;15.70;99.90;;;;;;4955604;28;20364;-75
2022/06/01 07:35:40;;;;;;;1999.90;999.90;;;16.40;99.90;;;;;;4957191;28;20034;-73
2022/06/01 07:43:38;;;;;;;1999.90;999.90;;;18.30;99.90;;;;;;4956980;28;20116;-75
2022/06/01 07:46:03;;;;;;;1999.90;999.90;;;19.00;99.90;;;;;;4940796;29;20065;-76
2022/06/01 07:48:29;;;;;;;1999.90;999.90;;;20.20;99.90;;;;;;4959946;28;20051;-75
2022/06/01 07:50:54;;;;;;;1999.90;999.90;;;20.50;99.90;;;;;;4957451;28;20098;-75
2022/06/01 07:53:20;;;;;;;1999.90;999.90;;;20.10;99.90;;;;;;4960592;28;20417;-74
2022/06/01 07:55:46;;;;;;;1999.90;999.90;;;21.00;99.90;;;;;;4959452;28;20035;-74
2022/06/01 07:58:11;;;;;;;1999.90;999.90;;;22.20;98.80;;;;;;4960704;28;20023;-73
2022/06/01 08:00:38;;;;;;;1999.90;999.90;;;21.60;98.00;;;;;;4961129;28;20031;-74
2022/06/01 08:03:10;;;;;;;1999.90;999.90;;;20.90;97.80;;;;;;4959150;28;20038;-74
2022/06/01 08:05:36;;;;;;;1999.90;999.90;;;19.50;99.90;;;;;;4961035;28;20019;-75
2022/06/01 08:08:01;;;;;;;1999.90;999.90;;;19.20;99.90;;;;;;4966133;28;20042;-75
2022/06/01 08:10:27;;;;;;;1999.90;999.90;;;19.30;99.90;;;;;;4952557;29;20366;-75
2022/06/01 08:13:08;;;;;;;1999.90;999.90;;;19.10;99.90;;;;;;4943279;28;20043;-75
2022/06/01 08:15:44;;;;;;;1999.90;999.90;;;19.00;99.90;;;;;;4964469;28;20037;-74
2022/06/01 08:18:11;;;;;;;1999.90;999.90;;;19.10;99.90;;;;;;4960019;28;20039;-74
2022/06/01 08:20:38;;;;;;;1999.90;999.90;;;19.10;99.90;;;;;;4935037;29;20055;-75
2022/06/01 08:23:05;;;;;;;1999.90;999.90;;;18.80;99.90;;;;;;4956390;28;20399;-73
2022/06/01 08:25:32;;;;;;;1999.90;999.90;;;18.70;99.90;;;;;;4955885;28;20062;-74
2022/06/01 08:27:59;;;;;;;1999.90;999.90;;;19.80;99.90;;;;;;4955023;28;20039;-73
2022/06/01 08:30:27;;;;;;;1999.90;999.90;;;19.50;99.90;;;;;;4956879;28;20843;-73
2022/06/01 08:32:54;;;;;;;1999.90;999.90;;;19.10;99.90;;;;;;4958809;28;20468;-74
2022/06/01 08:35:23;;;;;;;1999.90;999.90;;;18.70;99.90;;;;;;4939711;29;20055;-74
2022/06/01 08:37:49;;;;;;;1999.90;999.90;;;18.30;99.90;;;;;;4957199;28;20391;-75
2022/06/01 08:40:19;;;;;;;1999.90;999.90;;;19.40;99.90;;;;;;4938039;29;20088;-74
2022/06/01 08:43:05;;;;;;;1999.90;999.90;;;21.70;99.90;;;;;;4938301;28;20802;-73
2022/06/01 08:45:32;;;;;;;1999.90;999.90;;;23.50;98.00;;;;;;4942525;29;20031;-76
2022/06/01 08:47:59;;;;;;;1999.90;999.90;;;25.50;94.60;;;;;;4952574;28;20031;-73
2022/06/01 08:50:32;;;;;;;1999.90;999.90;;;26.30;92.80;;;;;;4953552;28;20390;-75
2022/06/01 08:53:01;;;;;;;1999.90;999.90;;;27.50;90.80;;;;;;4960936;28;20035;-76
2022/06/01 08:55:35;;;;;;;1999.90;999.90;;;28.40;88.90;;;;;;4956084;28;20031;-76
2022/06/01 08:58:13;;;;;;;1999.90;999.90;;;28.70;87.50;;;;;;4939355;28;20500;-75
2022/06/01 09:00:45;;;;;;;1999.90;999.90;;;26.20;89.00;;;;;;4957576;28;20522;-77
2022/06/01 09:03:23;;;;;;;1999.90;999.90;;;25.80;90.20;;;;;;4959488;28;20489;-76
2022/06/01 09:05:56;;;;;;;1999.90;999.90;;;25.70;91.90;;;;;;4958208;28;20033;-75
2022/06/01 09:08:50;;;;;;;1999.90;999.90;;;27.80;86.60;;;;;;4940567;28;20023;-73
2022/06/01 09:11:24;;;;;;;1999.90;999.90;;;28.50;84.40;;;;;;4952804;28;20038;-75
2022/06/01 09:14:04;;;;;;;1999.90;999.90;;;27.20;88.40;;;;;;4959555;28;20031;-77
2022/06/01 09:16:37;;;;;;;1999.90;999.90;;;25.30;91.50;;;;;;4954011;28;20531;-76
2022/06/01 09:19:03;;;;;;;1999.90;999.90;;;23.90;91.90;;;;;;4943777;28;20030;-77
2022/06/01 09:24:18;;;;;;;1999.90;999.90;;;23.70;94.10;;;;;;4962782;28;20424;-76
2022/06/01 09:26:57;;;;;;;1999.90;999.90;;;23.80;93.20;;;;;;4937469;29;20498;-75
2022/06/01 09:29:28;;;;;;;1999.90;999.90;;;23.90;91.60;;;;;;4936564;29;20525;-76
2022/06/01 09:32:04;;;;;;;1999.90;999.90;;;24.40;90.50;;;;;;4951976;28;20030;-75
2022/06/01 09:34:44;;;;;;;1999.90;999.90;;;24.90;90.30;;;;;;4935551;29;20197;-76
2022/06/01 09:37:12;;;;;;;1999.90;999.90;;;25.10;90.90;;;;;;4951988;28;20494;-74
2022/06/01 09:39:48;;;;;;;1999.90;999.90;;;25.40;88.40;;;;;;4951975;29;21525;-75
2022/06/01 09:42:25;;;;;;;1999.90;999.90;;;25.60;90.40;;;;;;4951066;28;20054;-76
2022/06/01 09:44:52;;;;;;;1999.90;999.90;;;25.30;90.70;;;;;;4956586;28;20034;-76
2022/06/01 09:47:28;;;;;;;1999.90;999.90;;;25.10;90.40;;;;;;4953897;28;20019;-75
2022/06/01 09:49:57;;;;;;;1999.90;999.90;;;24.70;91.40;;;;;;4951422;28;20046;-75
2022/06/01 09:52:33;;;;;;;1999.90;999.90;;;24.40;91.00;;;;;;4951083;29;20020;-75
2022/06/01 09:55:20;;;;;;;1999.90;999.90;;;23.60;92.10;;;;;;4952464;29;20486;-75
2022/06/01 10:06:05;;;;;;;1999.90;999.90;;;23.40;92.20;;;;;;4948047;28;20023;-75
2022/06/01 10:06:53;;;;;;;1999.90;999.90;;;23.60;92.40;;;;;;4951031;28;20085;-76
2022/06/01 10:09:28;;;;;;;1999.90;999.90;;;23.20;93.10;;;;;;4935714;28;20394;-75
2022/06/01 10:11:55;;;;;;;1999.90;999.90;;;23.20;92.60;;;;;;4958284;28;20101;-76
2022/06/01 10:14:32;;;;;;;1999.90;999.90;;;24.20;91.00;;;;;;4959508;28;20113;-75
2022/06/01 10:17:21;;;;;;;1999.90;999.90;;;26.40;90.10;;;;;;4954633;28;20024;-75
2022/06/01 10:19:53;;;;;;;1999.90;999.90;;;27.00;88.80;;;;;;4957046;28;20506;-75
2022/06/01 10:22:32;;;;;;;1999.90;999.90;;;26.30;86.90;;;;;;4954590;28;20078;-75
2022/06/01 10:25:11;;;;;;;1999.90;999.90;;;25.50;89.20;;;;;;4939578;28;20034;-75
2022/06/01 10:28:06;;;;;;;1999.90;999.90;;;25.10;91.30;;;;;;4961176;28;20041;-73
2022/06/01 10:30:43;;;;;;;1999.90;999.90;;;24.60;90.60;;;;;;4949808;28;20031;-75
2022/06/01 10:33:18;;;;;;;1999.90;999.90;;;24.40;90.90;;;;;;4950313;28;20031;-76
2022/06/01 10:36:05;;;;;;;1999.90;999.90;;;24.30;90.30;;;;;;4954518;28;20032;-76
2022/06/01 10:38:41;;;;;;;1999.90;999.90;;;24.40;91.80;;;;;;4952417;28;20035;-76
2022/06/01 10:41:06;;;;;;;1999.90;999.90;;;24.80;90.70;;;;;;4954092;28;20030;-76
2022/06/01 10:43:45;;;;;;;1999.90;999.90;;;27.70;85.70;;;;;;4958004;28;20035;-76
2022/06/01 10:46:11;;;;;;;1999.90;999.90;;;28.80;83.70;;;;;;4945662;28;20162;-74
2022/06/01 10:48:47;;;;;;;1999.90;999.90;;;30.00;81.80;;;;;;4952851;28;20110;-74
2022/06/01 10:51:24;;;;;;;1999.90;999.90;;;30.50;80.40;;;;;;4951228;28;20059;-74
2022/06/01 10:54:10;;;;;;;1999.90;999.90;;;30.40;79.50;;;;;;4956212;28;20067;-74
2022/06/01 10:56:37;;;;;;;1999.90;999.90;;;29.80;81.70;;;;;;4934850;28;20035;-75
2022/06/01 10:59:08;;;;;;;1999.90;999.90;;;30.10;79.60;;;;;;4952995;28;20048;-75
2022/06/01 11:01:48;;;;;;;1999.90;999.90;;;30.40;79.10;;;;;;4952278;28;20089;-75
2022/06/01 11:04:32;;;;;;;1999.90;999.90;;;29.70;79.30;;;;;;4952795;28;20031;-73
2022/06/01 11:07:22;;;;;;;1999.90;999.90;;;30.50;81.50;;;;;;4958973;28;20031;-72
2022/06/01 11:10:06;;;;;;;1999.90;999.90;;;31.20;81.10;;;;;;4931302;29;20395;-75
2022/06/01 11:12:44;;;;;;;1999.90;999.90;;;30.50;78.70;;;;;;4956075;28;20039;-75
2022/06/01 11:15:23;;;;;;;1999.90;999.90;;;30.50;78.40;;;;;;4951083;28;20110;-75
2022/06/01 11:17:51;;;;;;;1999.90;999.90;;;30.40;80.10;;;;;;4954993;28;20367;-73
2022/06/01 11:20:24;;;;;;;1999.90;999.90;;;30.60;77.60;;;;;;4953406;28;20541;-74
2022/06/01 11:23:20;;;;;;;1999.90;999.90;;;30.70;78.50;;;;;;4957858;28;20047;-75
2022/06/01 11:26:07;;;;;;;1999.90;999.90;;;31.00;78.20;;;;;;4956766;28;20039;-73
2022/06/01 11:28:54;;;;;;;1999.90;999.90;;;31.00;78.90;;;;;;4954027;28;20134;-75
2022/06/01 11:31:28;;;;;;;1999.90;999.90;;;30.30;78.20;;;;;;4953391;28;20107;-76
2022/06/01 11:34:04;;;;;;;1999.90;999.90;;;30.60;78.80;;;;;;4959480;28;20394;-75
2022/06/01 11:36:57;;;;;;;1999.90;999.90;;;31.40;77.80;;;;;;4958318;28;20051;-76
2022/06/01 11:39:36;;;;;;;1999.90;999.90;;;31.40;77.80;;;;;;4955103;28;20043;-75
2022/06/01 11:42:20;;;;;;;1999.90;999.90;;;31.80;75.90;;;;;;4961138;28;20058;-75
2022/06/01 11:45:08;;;;;;;1999.90;999.90;;;31.70;75.60;;;;;;4950917;29;20575;-75
2022/06/01 11:47:56;;;;;;;1999.90;999.90;;;31.30;77.10;;;;;;4957972;28;20026;-74
2022/06/01 11:50:59;;;;;;;1999.90;999.90;;;30.30;77.40;;;;;;4952972;28;20035;-73
2022/06/01 11:53:41;;;;;;;1999.90;999.90;;;30.70;79.50;;;;;;4951301;28;20038;-74
2022/06/01 11:56:57;;;;;;;1999.90;999.90;;;30.70;79.60;;;;;;4962350;28;20135;-74
2022/06/01 11:59:44;;;;;;;1999.90;999.90;;;31.20;79.30;;;;;;4954970;28;20042;-73
2022/06/01 12:02:50;;;;;;;1999.90;999.90;;;30.70;79.00;;;;;;4959691;28;20470;-73
2022/06/01 12:05:28;;;;;;;1999.90;999.90;;;30.50;79.20;;;;;;4953569;29;20039;-73
2022/06/01 12:08:21;;;;;;;1999.90;999.90;;;30.60;76.80;;;;;;4958284;28;20399;-73
2022/06/01 12:10:59;;;;;;;1999.90;999.90;;;30.40;76.80;;;;;;4952191;28;20046;-74
2022/06/01 12:13:31;;;;;;;1999.90;999.90;;;30.50;77.00;;;;;;4957805;28;20086;-74
2022/06/01 12:16:17;;;;;;;1999.90;999.90;;;30.60;76.30;;;;;;4937871;29;20040;-73
2022/06/01 12:19:12;;;;;;;1999.90;999.90;;;30.70;76.70;;;;;;4959253;28;20089;-74
2022/06/01 12:21:44;;;;;;;1999.90;999.90;;;30.30;78.60;;;;;;4941127;28;20058;-73
2022/06/01 12:29:59;;;;;;;1999.90;999.90;;;31.00;78.10;;;;;;4958823;28;20462;-72
2022/06/01 12:32:26;;;;;;;1999.90;999.90;;;30.70;77.60;;;;;;4955844;28;20033;-73
2022/06/01 12:35:18;;;;;;;1999.90;999.90;;;30.60;76.30;;;;;;4960412;28;20019;-74
2022/06/01 12:38:06;;;;;;;1999.90;999.90;;;30.50;76.80;;;;;;4940300;29;20054;-75
2022/06/01 12:40:33;;;;;;;1999.90;999.90;;;30.50;76.70;;;;;;4956489;28;20039;-75
2022/06/01 12:43:00;;;;;;;1999.90;999.90;;;30.30;77.30;;;;;;4953061;28;20024;-73